sensor_id;sensor_type;location;lat;lon;timestamp;temperature;humidity
1025;DHT22;501;48.214;11.350;2023-07-09T00:01:14;20.00;40.30
1025;DHT22;501;48.214;11.350;2023-07-09T00:03:47;20.00;41.10
1025;DHT22;501;48.214;11.350;2023-07-09T00:06:17;19.90;41.70
1025;DHT22;501;48.214;11.350;2023-07-09T00:08:44;19.90;41.60
1025;DHT22;501;48.214;11.350;2023-07-09T00:11:12;19.90;42.70
1025;DHT22;501;48.214;11.350;2023-07-09T00:13:38;19.80;41.90
1025;DHT22;501;48.214;11.350;2023-07-09T00:16:21;19.80;41.90
1025;DHT22;501;48.214;11.350;2023-07-09T00:18:48;19.80;42.40
1025;DHT22;501;48.214;11.350;2023-07-09T00:21:18;19.70;42.60
1025;DHT22;501;48.214;11.350;2023-07-09T00:23:45;19.70;42.30
1025;DHT22;501;48.214;11.350;2023-07-09T00:26:12;19.70;42.40
1025;DHT22;501;48.214;11.350;2023-07-09T00:28:44;19.60;42.40
1025;DHT22;501;48.214;11.350;2023-07-09T00:31:15;19.60;42.10
1025;DHT22;501;48.214;11.350;2023-07-09T00:33:42;19.60;42.00
1025;DHT22;501;48.214;11.350;2023-07-09T00:36:22;19.60;41.80
1025;DHT22;501;48.214;11.350;2023-07-09T00:38:50;19.60;41.80
1025;DHT22;501;48.214;11.350;2023-07-09T00:41:22;19.60;41.30
1025;DHT22;501;48.214;11.350;2023-07-09T00:43:49;19.60;41.40
1025;DHT22;501;48.214;11.350;2023-07-09T00:48:56;19.50;41.50
1025;DHT22;501;48.214;11.350;2023-07-09T00:51:24;19.50;41.70
1025;DHT22;501;48.214;11.350;2023-07-09T00:53:55;19.50;41.30
1025;DHT22;501;48.214;11.350;2023-07-09T00:56:32;19.50;41.80
1025;DHT22;501;48.214;11.350;2023-07-09T00:59:01;19.50;41.80
1025;DHT22;501;48.214;11.350;2023-07-09T01:01:29;19.50;41.50
1025;DHT22;501;48.214;11.350;2023-07-09T01:03:57;19.50;41.50
1025;DHT22;501;48.214;11.350;2023-07-09T01:09:00;19.40;42.00
1025;DHT22;501;48.214;11.350;2023-07-09T01:11:27;19.40;42.00
1025;DHT22;501;48.214;11.350;2023-07-09T01:13:55;19.30;42.20
1025;DHT22;501;48.214;11.350;2023-07-09T01:16:24;19.30;42.50
1025;DHT22;501;48.214;11.350;2023-07-09T01:18:51;19.30;42.50
1025;DHT22;501;48.214;11.350;2023-07-09T01:21:17;19.30;42.70
1025;DHT22;501;48.214;11.350;2023-07-09T01:23:44;19.20;42.50
1025;DHT22;501;48.214;11.350;2023-07-09T01:26:12;19.20;42.70
1025;DHT22;501;48.214;11.350;2023-07-09T01:28:38;19.10;42.80
1025;DHT22;501;48.214;11.350;2023-07-09T01:31:08;19.10;43.20
1025;DHT22;501;48.214;11.350;2023-07-09T01:33:33;19.10;43.50
1025;DHT22;501;48.214;11.350;2023-07-09T01:35:59;19.00;43.30
1025;DHT22;501;48.214;11.350;2023-07-09T01:38:28;19.00;43.60
1025;DHT22;501;48.214;11.350;2023-07-09T01:40:57;19.00;43.70
1025;DHT22;501;48.214;11.350;2023-07-09T01:43:24;19.00;43.80
1025;DHT22;501;48.214;11.350;2023-07-09T01:45:53;18.90;43.80
1025;DHT22;501;48.214;11.350;2023-07-09T01:48:23;18.90;44.30
1025;DHT22;501;48.214;11.350;2023-07-09T01:50:51;18.90;44.10
1025;DHT22;501;48.214;11.350;2023-07-09T01:53:19;18.90;44.60
1025;DHT22;501;48.214;11.350;2023-07-09T01:55:46;18.80;44.80
1025;DHT22;501;48.214;11.350;2023-07-09T01:58:11;18.80;45.20
1025;DHT22;501;48.214;11.350;2023-07-09T02:00:37;18.80;44.60
1025;DHT22;501;48.214;11.350;2023-07-09T02:03:05;18.70;45.00
1025;DHT22;501;48.214;11.350;2023-07-09T02:05:32;18.70;45.20
1025;DHT22;501;48.214;11.350;2023-07-09T02:07:58;18.70;45.00
1025;DHT22;501;48.214;11.350;2023-07-09T02:10:24;18.70;45.20
1025;DHT22;501;48.214;11.350;2023-07-09T02:12:50;18.70;45.20
1025;DHT22;501;48.214;11.350;2023-07-09T02:15:15;18.60;45.80
1025;DHT22;501;48.214;11.350;2023-07-09T02:17:41;18.60;45.40
1025;DHT22;501;48.214;11.350;2023-07-09T02:20:09;18.60;45.50
1025;DHT22;501;48.214;11.350;2023-07-09T02:22:36;18.60;45.80
1025;DHT22;501;48.214;11.350;2023-07-09T02:25:03;18.60;45.80
1025;DHT22;501;48.214;11.350;2023-07-09T02:27:29;18.60;45.80
1025;DHT22;501;48.214;11.350;2023-07-09T02:29:55;18.50;46.20
1025;DHT22;501;48.214;11.350;2023-07-09T02:32:23;18.50;46.40
1025;DHT22;501;48.214;11.350;2023-07-09T02:34:49;18.50;47.20
1025;DHT22;501;48.214;11.350;2023-07-09T02:37:19;18.50;46.50
1025;DHT22;501;48.214;11.350;2023-07-09T02:39:45;18.40;46.40
1025;DHT22;501;48.214;11.350;2023-07-09T02:42:13;18.40;46.90
1025;DHT22;501;48.214;11.350;2023-07-09T02:44:40;18.40;47.20
1025;DHT22;501;48.214;11.350;2023-07-09T02:47:07;18.40;47.70
1025;DHT22;501;48.214;11.350;2023-07-09T02:49:32;18.40;47.60
1025;DHT22;501;48.214;11.350;2023-07-09T02:51:58;18.30;47.40
1025;DHT22;501;48.214;11.350;2023-07-09T02:54:23;18.30;47.80
1025;DHT22;501;48.214;11.350;2023-07-09T02:56:49;18.30;47.50
1025;DHT22;501;48.214;11.350;2023-07-09T02:59:15;18.30;47.70
1025;DHT22;501;48.214;11.350;2023-07-09T03:01:40;18.20;47.60
1025;DHT22;501;48.214;11.350;2023-07-09T03:04:06;18.20;47.60
1025;DHT22;501;48.214;11.350;2023-07-09T03:06:34;18.20;47.60
1025;DHT22;501;48.214;11.350;2023-07-09T03:09:01;18.20;48.30
1025;DHT22;501;48.214;11.350;2023-07-09T03:11:29;18.20;48.90
1025;DHT22;501;48.214;11.350;2023-07-09T03:13:56;18.10;48.20
1025;DHT22;501;48.214;11.350;2023-07-09T03:16:22;18.10;48.00
1025;DHT22;501;48.214;11.350;2023-07-09T03:18:47;18.10;48.30
1025;DHT22;501;48.214;11.350;2023-07-09T03:21:13;18.10;48.50
1025;DHT22;501;48.214;11.350;2023-07-09T03:23:38;18.00;48.80
1025;DHT22;501;48.214;11.350;2023-07-09T03:26:04;18.00;49.00
1025;DHT22;501;48.214;11.350;2023-07-09T03:28:31;18.00;49.60
1025;DHT22;501;48.214;11.350;2023-07-09T03:30:57;18.00;49.50
1025;DHT22;501;48.214;11.350;2023-07-09T03:33:23;18.00;49.60
1025;DHT22;501;48.214;11.350;2023-07-09T03:35:50;18.00;49.70
1025;DHT22;501;48.214;11.350;2023-07-09T03:38:16;18.00;49.10
1025;DHT22;501;48.214;11.350;2023-07-09T03:40:42;18.00;49.40
1025;DHT22;501;48.214;11.350;2023-07-09T03:43:09;18.00;49.60
1025;DHT22;501;48.214;11.350;2023-07-09T03:45:36;18.00;50.80
1025;DHT22;501;48.214;11.350;2023-07-09T03:48:02;18.00;50.00
1025;DHT22;501;48.214;11.350;2023-07-09T03:50:28;18.00;49.60
1025;DHT22;501;48.214;11.350;2023-07-09T03:52:54;18.00;50.00
1025;DHT22;501;48.214;11.350;2023-07-09T03:55:20;18.00;50.30
1025;DHT22;501;48.214;11.350;2023-07-09T03:57:46;18.00;50.80
1025;DHT22;501;48.214;11.350;2023-07-09T04:00:12;18.00;50.80
1025;DHT22;501;48.214;11.350;2023-07-09T04:02:38;18.00;50.60
1025;DHT22;501;48.214;11.350;2023-07-09T04:05:05;18.00;50.80
1025;DHT22;501;48.214;11.350;2023-07-09T04:07:31;18.10;51.70
1025;DHT22;501;48.214;11.350;2023-07-09T04:09:56;18.10;51.30
1025;DHT22;501;48.214;11.350;2023-07-09T04:12:22;18.10;51.70
1025;DHT22;501;48.214;11.350;2023-07-09T04:14:47;18.10;52.50
1025;DHT22;501;48.214;11.350;2023-07-09T04:17:13;18.20;52.80
1025;DHT22;501;48.214;11.350;2023-07-09T04:19:39;18.20;52.90
1025;DHT22;501;48.214;11.350;2023-07-09T04:22:04;18.20;52.90
1025;DHT22;501;48.214;11.350;2023-07-09T04:24:30;18.20;53.50
1025;DHT22;501;48.214;11.350;2023-07-09T04:26:57;18.30;53.60
1025;DHT22;501;48.214;11.350;2023-07-09T04:29:23;18.30;53.20
1025;DHT22;501;48.214;11.350;2023-07-09T04:31:49;18.30;53.30
1025;DHT22;501;48.214;11.350;2023-07-09T04:34:14;18.30;53.20
1025;DHT22;501;48.214;11.350;2023-07-09T04:36:40;18.40;53.00
1025;DHT22;501;48.214;11.350;2023-07-09T04:39:05;18.40;53.00
1025;DHT22;501;48.214;11.350;2023-07-09T04:41:31;18.40;52.70
1025;DHT22;501;48.214;11.350;2023-07-09T04:43:57;18.50;52.50
1025;DHT22;501;48.214;11.350;2023-07-09T04:46:22;18.50;52.10
1025;DHT22;501;48.214;11.350;2023-07-09T04:48:48;18.60;52.20
1025;DHT22;501;48.214;11.350;2023-07-09T04:51:14;18.60;51.50
1025;DHT22;501;48.214;11.350;2023-07-09T04:53:39;18.70;52.10
1025;DHT22;501;48.214;11.350;2023-07-09T04:56:05;18.70;52.30
1025;DHT22;501;48.214;11.350;2023-07-09T04:58:31;18.80;52.20
1025;DHT22;501;48.214;11.350;2023-07-09T05:00:57;18.80;51.30
1025;DHT22;501;48.214;11.350;2023-07-09T05:03:23;18.90;51.60
1025;DHT22;501;48.214;11.350;2023-07-09T05:05:49;18.90;51.20
1025;DHT22;501;48.214;11.350;2023-07-09T05:08:15;19.00;51.80
1025;DHT22;501;48.214;11.350;2023-07-09T05:10:46;19.00;51.40
1025;DHT22;501;48.214;11.350;2023-07-09T05:13:12;19.10;51.50
1025;DHT22;501;48.214;11.350;2023-07-09T05:15:44;19.10;51.30
1025;DHT22;501;48.214;11.350;2023-07-09T05:18:11;19.20;50.90
1025;DHT22;501;48.214;11.350;2023-07-09T05:20:37;19.30;51.20
1025;DHT22;501;48.214;11.350;2023-07-09T05:23:03;19.40;50.30
1025;DHT22;501;48.214;11.350;2023-07-09T05:25:29;19.50;49.70
1025;DHT22;501;48.214;11.350;2023-07-09T05:27:54;19.60;48.90
1025;DHT22;501;48.214;11.350;2023-07-09T05:30:20;19.70;49.00
1025;DHT22;501;48.214;11.350;2023-07-09T05:32:46;19.80;49.70
1025;DHT22;501;48.214;11.350;2023-07-09T05:35:12;19.90;48.60
1025;DHT22;501;48.214;11.350;2023-07-09T05:37:38;20.00;49.20
1025;DHT22;501;48.214;11.350;2023-07-09T05:40:06;20.10;47.70
1025;DHT22;501;48.214;11.350;2023-07-09T05:42:32;20.20;48.20
1025;DHT22;501;48.214;11.350;2023-07-09T05:44:57;20.40;47.30
1025;DHT22;501;48.214;11.350;2023-07-09T05:47:24;20.40;46.50
1025;DHT22;501;48.214;11.350;2023-07-09T05:49:50;20.50;46.20
1025;DHT22;501;48.214;11.350;2023-07-09T05:52:20;20.60;45.30
1025;DHT22;501;48.214;11.350;2023-07-09T05:54:48;20.70;45.90
1025;DHT22;501;48.214;11.350;2023-07-09T05:57:13;20.90;45.00
1025;DHT22;501;48.214;11.350;2023-07-09T05:59:39;20.90;44.00
1025;DHT22;501;48.214;11.350;2023-07-09T06:02:14;21.00;44.00
1025;DHT22;501;48.214;11.350;2023-07-09T06:04:40;21.10;45.30
1025;DHT22;501;48.214;11.350;2023-07-09T06:07:06;21.20;45.40
1025;DHT22;501;48.214;11.350;2023-07-09T06:09:31;21.20;45.40
1025;DHT22;501;48.214;11.350;2023-07-09T06:11:57;21.30;45.50
1025;DHT22;501;48.214;11.350;2023-07-09T06:14:25;21.40;46.00
1025;DHT22;501;48.214;11.350;2023-07-09T06:16:50;21.50;44.80
1025;DHT22;501;48.214;11.350;2023-07-09T06:19:16;21.60;44.30
1025;DHT22;501;48.214;11.350;2023-07-09T06:21:42;21.60;44.10
1025;DHT22;501;48.214;11.350;2023-07-09T06:24:08;21.70;43.40
1025;DHT22;501;48.214;11.350;2023-07-09T06:26:34;21.80;43.80
1025;DHT22;501;48.214;11.350;2023-07-09T06:29:00;21.90;43.20
1025;DHT22;501;48.214;11.350;2023-07-09T06:31:25;22.00;42.60
1025;DHT22;501;48.214;11.350;2023-07-09T06:33:51;22.10;43.20
1025;DHT22;501;48.214;11.350;2023-07-09T06:36:18;22.20;42.20
1025;DHT22;501;48.214;11.350;2023-07-09T06:38:44;22.20;41.50
1025;DHT22;501;48.214;11.350;2023-07-09T06:41:10;22.30;41.40
1025;DHT22;501;48.214;11.350;2023-07-09T06:43:36;22.40;41.70
1025;DHT22;501;48.214;11.350;2023-07-09T06:46:06;22.60;40.30
1025;DHT22;501;48.214;11.350;2023-07-09T06:48:32;22.70;39.40
1025;DHT22;501;48.214;11.350;2023-07-09T06:50:59;22.80;39.70
1025;DHT22;501;48.214;11.350;2023-07-09T06:53:26;22.90;38.70
1025;DHT22;501;48.214;11.350;2023-07-09T06:55:52;23.00;38.90
1025;DHT22;501;48.214;11.350;2023-07-09T06:58:21;23.10;39.10
1025;DHT22;501;48.214;11.350;2023-07-09T07:00:48;23.20;38.90
1025;DHT22;501;48.214;11.350;2023-07-09T07:03:15;23.40;37.80
1025;DHT22;501;48.214;11.350;2023-07-09T07:05:48;23.50;37.30
1025;DHT22;501;48.214;11.350;2023-07-09T07:08:20;23.60;37.80
1025;DHT22;501;48.214;11.350;2023-07-09T07:10:48;23.70;35.90
1025;DHT22;501;48.214;11.350;2023-07-09T07:13:14;23.80;34.30
1025;DHT22;501;48.214;11.350;2023-07-09T07:15:39;24.00;34.00
1025;DHT22;501;48.214;11.350;2023-07-09T07:18:06;24.10;33.30
1025;DHT22;501;48.214;11.350;2023-07-09T07:20:32;24.20;33.60
1025;DHT22;501;48.214;11.350;2023-07-09T07:22:58;24.30;33.00
1025;DHT22;501;48.214;11.350;2023-07-09T07:25:24;24.40;33.90
1025;DHT22;501;48.214;11.350;2023-07-09T07:27:50;24.40;32.90
1025;DHT22;501;48.214;11.350;2023-07-09T07:30:16;24.50;32.80
1025;DHT22;501;48.214;11.350;2023-07-09T07:32:47;24.60;33.00
1025;DHT22;501;48.214;11.350;2023-07-09T07:35:13;24.70;31.70
1025;DHT22;501;48.214;11.350;2023-07-09T07:37:41;24.80;30.90
1025;DHT22;501;48.214;11.350;2023-07-09T07:40:07;24.90;31.40
1025;DHT22;501;48.214;11.350;2023-07-09T07:42:33;25.00;31.80
1025;DHT22;501;48.214;11.350;2023-07-09T07:44:59;25.00;32.90
1025;DHT22;501;48.214;11.350;2023-07-09T07:47:24;25.10;30.90
1025;DHT22;501;48.214;11.350;2023-07-09T07:49:51;25.20;29.70
1025;DHT22;501;48.214;11.350;2023-07-09T07:52:16;25.20;31.10
1025;DHT22;501;48.214;11.350;2023-07-09T07:54:42;25.30;31.20
1025;DHT22;501;48.214;11.350;2023-07-09T07:57:08;25.40;31.20
1025;DHT22;501;48.214;11.350;2023-07-09T07:59:35;25.50;30.90
1025;DHT22;501;48.214;11.350;2023-07-09T08:02:02;25.60;30.60
1025;DHT22;501;48.214;11.350;2023-07-09T08:04:28;25.60;30.10
1025;DHT22;501;48.214;11.350;2023-07-09T08:06:54;25.70;29.70
1025;DHT22;501;48.214;11.350;2023-07-09T08:09:19;25.70;28.80
1025;DHT22;501;48.214;11.350;2023-07-09T08:11:45;25.70;29.30
1025;DHT22;501;48.214;11.350;2023-07-09T08:14:11;25.80;29.00
1025;DHT22;501;48.214;11.350;2023-07-09T08:16:38;25.90;29.50
1025;DHT22;501;48.214;11.350;2023-07-09T08:19:03;26.00;28.80
1025;DHT22;501;48.214;11.350;2023-07-09T08:21:29;26.00;28.90
1025;DHT22;501;48.214;11.350;2023-07-09T08:23:54;26.10;28.80
1025;DHT22;501;48.214;11.350;2023-07-09T08:26:20;26.10;28.80
1025;DHT22;501;48.214;11.350;2023-07-09T08:28:46;26.20;28.10
1025;DHT22;501;48.214;11.350;2023-07-09T08:31:11;26.30;28.60
1025;DHT22;501;48.214;11.350;2023-07-09T08:33:37;26.30;28.70
1025;DHT22;501;48.214;11.350;2023-07-09T08:36:03;26.40;28.80
1025;DHT22;501;48.214;11.350;2023-07-09T08:38:29;26.40;28.80
1025;DHT22;501;48.214;11.350;2023-07-09T08:40:59;26.50;27.50
1025;DHT22;501;48.214;11.350;2023-07-09T08:45:56;26.60;27.50
1025;DHT22;501;48.214;11.350;2023-07-09T08:48:31;26.70;27.60
1025;DHT22;501;48.214;11.350;2023-07-09T08:51:02;26.80;27.70
1025;DHT22;501;48.214;11.350;2023-07-09T08:53:39;26.80;28.10
1025;DHT22;501;48.214;11.350;2023-07-09T08:56:09;26.90;29.00
1025;DHT22;501;48.214;11.350;2023-07-09T08:58:36;26.90;27.70
1025;DHT22;501;48.214;11.350;2023-07-09T09:01:57;26.90;27.70
1025;DHT22;501;48.214;11.350;2023-07-09T09:04:15;27.00;27.50
1025;DHT22;501;48.214;11.350;2023-07-09T09:06:50;27.10;27.90
1025;DHT22;501;48.214;11.350;2023-07-09T09:09:39;27.10;27.30
1025;DHT22;501;48.214;11.350;2023-07-09T09:14:42;27.20;27.90
1025;DHT22;501;48.214;11.350;2023-07-09T09:17:18;27.30;27.10
1025;DHT22;501;48.214;11.350;2023-07-09T09:19:52;27.30;26.80
1025;DHT22;501;48.214;11.350;2023-07-09T09:22:24;27.40;26.00
1025;DHT22;501;48.214;11.350;2023-07-09T09:25:11;27.40;25.30
1025;DHT22;501;48.214;11.350;2023-07-09T09:27:42;27.50;25.40
1025;DHT22;501;48.214;11.350;2023-07-09T09:30:20;27.50;26.50
1025;DHT22;501;48.214;11.350;2023-07-09T09:32:56;27.60;27.00
1025;DHT22;501;48.214;11.350;2023-07-09T09:35:33;27.70;26.00
1025;DHT22;501;48.214;11.350;2023-07-09T09:38:00;27.80;25.30
1025;DHT22;501;48.214;11.350;2023-07-09T09:40:28;27.90;25.70
1025;DHT22;501;48.214;11.350;2023-07-09T09:42:56;27.90;25.50
1025;DHT22;501;48.214;11.350;2023-07-09T09:45:34;28.00;25.10
1025;DHT22;501;48.214;11.350;2023-07-09T09:48:01;28.00;25.00
1025;DHT22;501;48.214;11.350;2023-07-09T09:50:32;28.10;23.60
1025;DHT22;501;48.214;11.350;2023-07-09T09:52:59;28.20;24.20
1025;DHT22;501;48.214;11.350;2023-07-09T09:55:30;28.30;25.20
1025;DHT22;501;48.214;11.350;2023-07-09T09:57:56;28.30;24.70
1025;DHT22;501;48.214;11.350;2023-07-09T10:00:24;28.40;24.70
1025;DHT22;501;48.214;11.350;2023-07-09T10:02:50;28.50;23.80
1025;DHT22;501;48.214;11.350;2023-07-09T10:05:30;28.60;23.80
1025;DHT22;501;48.214;11.350;2023-07-09T10:08:05;28.60;23.90
1025;DHT22;501;48.214;11.350;2023-07-09T10:10:33;28.70;22.40
1025;DHT22;501;48.214;11.350;2023-07-09T10:13:07;28.70;22.80
1025;DHT22;501;48.214;11.350;2023-07-09T10:15:48;28.80;23.40
1025;DHT22;501;48.214;11.350;2023-07-09T10:21:19;28.80;22.60
1025;DHT22;501;48.214;11.350;2023-07-09T10:26:53;29.00;21.30
1025;DHT22;501;48.214;11.350;2023-07-09T10:32:47;29.10;21.70
1025;DHT22;501;48.214;11.350;2023-07-09T10:35:32;29.20;21.40
1025;DHT22;501;48.214;11.350;2023-07-09T10:40:41;29.30;21.40
1025;DHT22;501;48.214;11.350;2023-07-09T10:43:15;29.30;21.30
1025;DHT22;501;48.214;11.350;2023-07-09T10:45:50;29.40;22.00
1025;DHT22;501;48.214;11.350;2023-07-09T10:48:33;29.50;21.40
1025;DHT22;501;48.214;11.350;2023-07-09T10:51:00;29.50;21.40
1025;DHT22;501;48.214;11.350;2023-07-09T10:56:25;29.70;21.50
1025;DHT22;501;48.214;11.350;2023-07-09T10:59:01;29.80;21.80
1025;DHT22;501;48.214;11.350;2023-07-09T11:01:35;30.00;21.40
1025;DHT22;501;48.214;11.350;2023-07-09T11:04:06;30.10;21.20
1025;DHT22;501;48.214;11.350;2023-07-09T11:06:38;30.30;21.00
1025;DHT22;501;48.214;11.350;2023-07-09T11:09:14;30.50;21.00
1025;DHT22;501;48.214;11.350;2023-07-09T11:11:46;30.70;21.00
1025;DHT22;501;48.214;11.350;2023-07-09T11:14:31;30.90;20.40
1025;DHT22;501;48.214;11.350;2023-07-09T11:16:59;31.20;18.40
1025;DHT22;501;48.214;11.350;2023-07-09T11:19:26;31.50;19.00
1025;DHT22;501;48.214;11.350;2023-07-09T11:21:59;31.90;18.70
1025;DHT22;501;48.214;11.350;2023-07-09T11:27:24;32.60;17.00
1025;DHT22;501;48.214;11.350;2023-07-09T11:30:18;33.00;16.90
1025;DHT22;501;48.214;11.350;2023-07-09T11:32:47;33.30;17.50
1025;DHT22;501;48.214;11.350;2023-07-09T11:35:22;33.70;17.10
1025;DHT22;501;48.214;11.350;2023-07-09T11:37:48;34.00;15.80
1025;DHT22;501;48.214;11.350;2023-07-09T11:40:14;34.40;16.10
1025;DHT22;501;48.214;11.350;2023-07-09T11:45:30;35.00;14.70
1025;DHT22;501;48.214;11.350;2023-07-09T11:48:25;35.30;15.10
1025;DHT22;501;48.214;11.350;2023-07-09T11:50:53;35.50;14.70
1025;DHT22;501;48.214;11.350;2023-07-09T11:53:28;35.80;16.10
1025;DHT22;501;48.214;11.350;2023-07-09T11:55:54;36.10;15.10
1025;DHT22;501;48.214;11.350;2023-07-09T11:58:20;36.40;14.20
1025;DHT22;501;48.214;11.350;2023-07-09T12:00:48;36.60;13.80
1025;DHT22;501;48.214;11.350;2023-07-09T12:03:21;36.80;14.00
1025;DHT22;501;48.214;11.350;2023-07-09T12:05:51;37.10;13.40
1025;DHT22;501;48.214;11.350;2023-07-09T12:08:18;37.30;12.50
1025;DHT22;501;48.214;11.350;2023-07-09T12:10:45;37.50;12.90
1025;DHT22;501;48.214;11.350;2023-07-09T12:13:11;37.70;11.50
1025;DHT22;501;48.214;11.350;2023-07-09T12:15:39;37.90;11.40
1025;DHT22;501;48.214;11.350;2023-07-09T12:18:12;38.10;11.60
1025;DHT22;501;48.214;11.350;2023-07-09T12:20:38;38.20;11.50
1025;DHT22;501;48.214;11.350;2023-07-09T12:23:25;38.40;10.50
1025;DHT22;501;48.214;11.350;2023-07-09T12:25:52;38.50;10.90
1025;DHT22;501;48.214;11.350;2023-07-09T12:28:20;38.70;10.40
1025;DHT22;501;48.214;11.350;2023-07-09T12:30:47;38.80;10.20
1025;DHT22;501;48.214;11.350;2023-07-09T12:33:18;39.00;10.30
1025;DHT22;501;48.214;11.350;2023-07-09T12:35:46;39.10;10.30
1025;DHT22;501;48.214;11.350;2023-07-09T12:38:19;39.30;10.50
1025;DHT22;501;48.214;11.350;2023-07-09T12:40:47;39.50;10.60
1025;DHT22;501;48.214;11.350;2023-07-09T12:43:13;39.60;9.40
1025;DHT22;501;48.214;11.350;2023-07-09T12:45:39;39.80;10.40
1025;DHT22;501;48.214;11.350;2023-07-09T12:48:05;40.00;9.60
1025;DHT22;501;48.214;11.350;2023-07-09T12:50:33;40.00;8.20
1025;DHT22;501;48.214;11.350;2023-07-09T12:53:10;40.10;9.80
1025;DHT22;501;48.214;11.350;2023-07-09T12:55:41;40.20;9.20
1025;DHT22;501;48.214;11.350;2023-07-09T12:58:20;40.20;9.70
1025;DHT22;501;48.214;11.350;2023-07-09T13:00:54;40.30;9.10
1025;DHT22;501;48.214;11.350;2023-07-09T13:03:30;40.40;9.00
1025;DHT22;501;48.214;11.350;2023-07-09T13:06:05;40.50;9.30
1025;DHT22;501;48.214;11.350;2023-07-09T13:08:42;40.60;8.70
1025;DHT22;501;48.214;11.350;2023-07-09T13:11:15;40.60;8.60
1025;DHT22;501;48.214;11.350;2023-07-09T13:14:03;40.60;8.70
1025;DHT22;501;48.214;11.350;2023-07-09T13:16:29;40.80;9.00
1025;DHT22;501;48.214;11.350;2023-07-09T13:18:55;40.90;8.50
1025;DHT22;501;48.214;11.350;2023-07-09T13:21:21;40.90;7.90
1025;DHT22;501;48.214;11.350;2023-07-09T13:23:48;41.00;8.40
1025;DHT22;501;48.214;11.350;2023-07-09T13:26:14;40.90;8.40
1025;DHT22;501;48.214;11.350;2023-07-09T13:28:42;40.90;8.20
1025;DHT22;501;48.214;11.350;2023-07-09T13:31:16;40.90;7.90
1025;DHT22;501;48.214;11.350;2023-07-09T13:33:43;40.80;7.70
1025;DHT22;501;48.214;11.350;2023-07-09T13:36:08;40.70;8.70
1025;DHT22;501;48.214;11.350;2023-07-09T13:38:35;40.80;8.00
1025;DHT22;501;48.214;11.350;2023-07-09T13:41:10;40.80;7.80
1025;DHT22;501;48.214;11.350;2023-07-09T13:43:37;40.80;7.70
1025;DHT22;501;48.214;11.350;2023-07-09T13:46:06;40.90;7.70
1025;DHT22;501;48.214;11.350;2023-07-09T13:48:34;41.00;7.90
1025;DHT22;501;48.214;11.350;2023-07-09T13:50:59;41.00;7.80
1025;DHT22;501;48.214;11.350;2023-07-09T13:53:31;41.10;8.40
1025;DHT22;501;48.214;11.350;2023-07-09T13:55:57;41.20;7.20
1025;DHT22;501;48.214;11.350;2023-07-09T13:58:25;41.20;7.20
1025;DHT22;501;48.214;11.350;2023-07-09T14:00:55;41.10;7.40
1025;DHT22;501;48.214;11.350;2023-07-09T14:03:25;41.10;7.20
1025;DHT22;501;48.214;11.350;2023-07-09T14:05:52;41.00;8.00
1025;DHT22;501;48.214;11.350;2023-07-09T14:08:18;41.00;7.10
1025;DHT22;501;48.214;11.350;2023-07-09T14:10:45;41.10;7.20
1025;DHT22;501;48.214;11.350;2023-07-09T14:13:14;41.00;7.10
1025;DHT22;501;48.214;11.350;2023-07-09T14:15:40;41.00;7.10
1025;DHT22;501;48.214;11.350;2023-07-09T14:18:14;40.80;7.20
1025;DHT22;501;48.214;11.350;2023-07-09T14:20:40;40.70;8.10
1025;DHT22;501;48.214;11.350;2023-07-09T14:23:11;40.70;7.90
1025;DHT22;501;48.214;11.350;2023-07-09T14:25:37;40.60;8.20
1025;DHT22;501;48.214;11.350;2023-07-09T14:28:18;40.50;8.00
1025;DHT22;501;48.214;11.350;2023-07-09T14:30:44;40.30;8.30
1025;DHT22;501;48.214;11.350;2023-07-09T14:33:17;40.20;8.30
1025;DHT22;501;48.214;11.350;2023-07-09T14:35:44;40.20;9.10
1025;DHT22;501;48.214;11.350;2023-07-09T14:38:18;40.20;8.50
1025;DHT22;501;48.214;11.350;2023-07-09T14:40:45;40.30;9.00
1025;DHT22;501;48.214;11.350;2023-07-09T14:43:12;40.30;8.10
1025;DHT22;501;48.214;11.350;2023-07-09T14:45:37;40.30;7.90
1025;DHT22;501;48.214;11.350;2023-07-09T14:48:10;40.20;8.20
1025;DHT22;501;48.214;11.350;2023-07-09T14:50:36;40.20;7.70
1025;DHT22;501;48.214;11.350;2023-07-09T14:53:02;40.10;7.30
1025;DHT22;501;48.214;11.350;2023-07-09T14:55:28;40.10;7.50
1025;DHT22;501;48.214;11.350;2023-07-09T14:57:55;40.10;8.60
1025;DHT22;501;48.214;11.350;2023-07-09T15:00:22;40.10;8.20
1025;DHT22;501;48.214;11.350;2023-07-09T15:02:52;40.10;8.30
1025;DHT22;501;48.214;11.350;2023-07-09T15:05:23;39.90;8.90
1025;DHT22;501;48.214;11.350;2023-07-09T15:07:50;39.90;8.20
1025;DHT22;501;48.214;11.350;2023-07-09T15:10:18;39.80;8.50
1025;DHT22;501;48.214;11.350;2023-07-09T15:12:47;39.80;8.90
1025;DHT22;501;48.214;11.350;2023-07-09T15:15:31;39.80;8.60
1025;DHT22;501;48.214;11.350;2023-07-09T15:17:59;39.80;8.70
1025;DHT22;501;48.214;11.350;2023-07-09T15:20:28;39.80;8.50
1025;DHT22;501;48.214;11.350;2023-07-09T15:22:56;39.80;8.00
1025;DHT22;501;48.214;11.350;2023-07-09T15:25:25;39.80;8.80
1025;DHT22;501;48.214;11.350;2023-07-09T15:27:51;39.70;8.20
1025;DHT22;501;48.214;11.350;2023-07-09T15:30:22;39.70;8.70
1025;DHT22;501;48.214;11.350;2023-07-09T15:32:49;39.60;8.40
1025;DHT22;501;48.214;11.350;2023-07-09T15:35:16;39.50;8.80
1025;DHT22;501;48.214;11.350;2023-07-09T15:37:42;39.40;9.10
1025;DHT22;501;48.214;11.350;2023-07-09T15:40:17;39.40;9.60
1025;DHT22;501;48.214;11.350;2023-07-09T15:42:44;39.30;10.10
1025;DHT22;501;48.214;11.350;2023-07-09T15:45:13;39.40;10.60
1025;DHT22;501;48.214;11.350;2023-07-09T15:47:39;39.30;9.40
1025;DHT22;501;48.214;11.350;2023-07-09T15:50:26;39.20;9.40
1025;DHT22;501;48.214;11.350;2023-07-09T15:52:53;39.10;9.10
1025;DHT22;501;48.214;11.350;2023-07-09T15:55:26;38.90;8.70
1025;DHT22;501;48.214;11.350;2023-07-09T15:57:53;38.80;9.00
1025;DHT22;501;48.214;11.350;2023-07-09T16:00:25;38.70;9.30
1025;DHT22;501;48.214;11.350;2023-07-09T16:02:51;38.50;8.80
1025;DHT22;501;48.214;11.350;2023-07-09T16:05:22;38.30;9.00
1025;DHT22;501;48.214;11.350;2023-07-09T16:07:52;38.10;9.00
1025;DHT22;501;48.214;11.350;2023-07-09T16:10:20;38.10;9.20
1025;DHT22;501;48.214;11.350;2023-07-09T16:12:49;38.00;9.20
1025;DHT22;501;48.214;11.350;2023-07-09T16:15:20;38.00;9.20
1025;DHT22;501;48.214;11.350;2023-07-09T16:17:47;37.90;9.10
1025;DHT22;501;48.214;11.350;2023-07-09T16:20:16;37.90;9.80
1025;DHT22;501;48.214;11.350;2023-07-09T16:22:48;37.80;9.70
1025;DHT22;501;48.214;11.350;2023-07-09T16:25:21;37.80;10.00
1025;DHT22;501;48.214;11.350;2023-07-09T16:27:48;37.80;9.60
1025;DHT22;501;48.214;11.350;2023-07-09T16:30:17;37.80;10.10
1025;DHT22;501;48.214;11.350;2023-07-09T16:32:44;37.70;10.90
1025;DHT22;501;48.214;11.350;2023-07-09T16:35:17;37.70;11.20
1025;DHT22;501;48.214;11.350;2023-07-09T16:37:46;37.60;11.20
1025;DHT22;501;48.214;11.350;2023-07-09T16:40:18;37.50;11.00
1025;DHT22;501;48.214;11.350;2023-07-09T16:42:45;37.50;10.80
1025;DHT22;501;48.214;11.350;2023-07-09T16:45:13;37.40;10.60